createdAt,value
2023-05-08T00:03:53.936Z,99098.47
2023-05-08T00:08:56.155Z,99098.34
2023-05-08T00:13:57.968Z,99099.56
2023-05-08T00:19:00.652Z,99092.19
2023-05-08T00:24:02.521Z,99087.53
2023-05-08T00:29:06.511Z,99083.72
2023-05-08T00:34:08.963Z,99075.81
2023-05-08T00:39:10.794Z,99088.59
2023-05-08T00:44:12.640Z,99092.97
2023-05-08T00:49:16.074Z,99085.06
2023-05-08T00:54:18.347Z,99083.16
2023-05-08T00:59:22.889Z,99094.19
2023-05-08T01:04:25.365Z,99087.38
2023-05-08T01:09:27.283Z,99084.50
2023-05-08T01:14:55.193Z,99081.50
2023-05-08T01:20:36.884Z,99081.09
2023-05-08T01:26:03.374Z,99079.84
2023-05-08T01:31:21.931Z,99082.84
2023-05-08T01:36:32.065Z,99084.72
2023-05-08T01:41:37.005Z,99091.56
2023-05-08T01:46:39.027Z,99093.19
2023-05-08T01:51:46.023Z,99093.31
2023-05-08T01:56:50.415Z,99091.00
2023-05-08T02:01:57.062Z,99096.44
2023-05-08T02:07:01.128Z,99092.59
2023-05-08T02:12:06.791Z,99084.16
2023-05-08T02:17:10.586Z,99094.75
2023-05-08T02:22:14.051Z,99097.47
2023-05-08T02:27:16.887Z,99093.25
2023-05-08T02:32:20.953Z,99085.63
2023-05-08T02:37:24.306Z,99086.69
2023-05-08T02:42:26.520Z,99096.50
2023-05-08T02:47:40.125Z,99091.97
2023-05-08T02:52:49.714Z,99096.84
2023-05-08T02:57:54.510Z,99102.28
2023-05-08T03:03:01.586Z,99105.13
2023-05-08T03:08:08.136Z,99103.59
2023-05-08T03:13:12.470Z,99116.66
2023-05-08T03:18:21.231Z,99105.75
2023-05-08T03:23:26.516Z,99103.56
2023-05-08T03:28:30.628Z,99100.16
2023-05-08T03:33:37.267Z,99106.00
2023-05-08T03:38:39.684Z,99106.16
2023-05-08T03:43:44.050Z,99103.56
2023-05-08T03:48:47.509Z,99109.81
2023-05-08T03:53:49.717Z,99111.31
2023-05-08T03:59:21.744Z,99116.78
2023-05-08T04:04:39.999Z,99116.97
2023-05-08T04:09:53.436Z,99119.59
2023-05-08T04:15:01.487Z,99116.75
2023-05-08T04:20:07.156Z,99117.16
2023-05-08T04:25:11.783Z,99124.22
2023-05-08T04:30:15.193Z,99132.53
2023-05-08T04:35:18.333Z,99132.28
2023-05-08T04:40:21.368Z,99144.72
2023-05-08T04:45:23.409Z,99152.47
2023-05-08T04:50:25.839Z,99151.53
2023-05-08T04:55:28.104Z,99155.75
2023-05-08T05:00:30.676Z,99158.91
2023-05-08T05:05:36.421Z,99158.50
2023-05-08T05:10:40.832Z,99159.75
2023-05-08T05:15:43.770Z,99158.28
2023-05-08T05:20:46.469Z,99164.19
2023-05-08T05:25:49.199Z,99154.00
2023-05-08T05:30:51.819Z,99162.19
2023-05-08T05:35:53.727Z,99162.75
2023-05-08T05:40:55.688Z,99160.19
2023-05-08T05:46:07.501Z,99164.31
2023-05-08T05:51:10.070Z,99168.69
2023-05-08T05:56:12.102Z,99172.13
2023-05-08T06:01:14.056Z,99164.75
2023-05-08T06:06:16.023Z,99172.53
2023-05-08T06:11:17.919Z,99171.31
2023-05-08T06:16:24.508Z,99168.06
2023-05-08T06:21:26.860Z,99172.03
2023-05-08T06:26:28.788Z,99173.38
2023-05-08T06:31:30.709Z,99177.16
2023-05-08T06:36:32.821Z,99169.88
2023-05-08T06:41:34.688Z,99168.31
2023-05-08T06:46:36.527Z,99174.00
2023-05-08T06:51:39.547Z,99180.25
2023-05-08T06:56:44.762Z,99176.19
2023-05-08T07:01:46.620Z,99164.94
2023-05-08T07:06:48.453Z,99174.16
2023-05-08T07:11:50.301Z,99170.25
2023-05-08T07:16:52.040Z,99177.84
2023-05-08T07:21:54.871Z,99175.72
2023-05-08T07:26:56.917Z,99179.38
2023-05-08T07:31:58.839Z,99176.41
2023-05-08T07:37:00.761Z,99177.66
2023-05-08T07:42:06.089Z,99182.63
2023-05-08T07:47:07.968Z,99179.63
2023-05-08T07:52:10.074Z,99180.03
2023-05-08T07:57:11.936Z,99177.34
2023-05-08T08:02:14.558Z,99176.63
2023-05-08T08:07:16.814Z,99175.38
2023-05-08T08:12:18.732Z,99181.97
2023-05-08T08:17:20.758Z,99172.59
2023-05-08T08:22:23.071Z,99170.19
2023-05-08T08:27:25.129Z,99167.44
2023-05-08T08:32:27.014Z,99173.38
2023-05-08T08:37:29.386Z,99166.53
2023-05-08T08:42:31.725Z,99178.78
2023-05-08T08:47:41.562Z,99167.03
2023-05-08T08:53:01.308Z,99172.75
2023-05-08T08:58:24.256Z,99171.31
2023-05-08T09:03:27.083Z,99168.72
2023-05-08T09:08:29.217Z,99163.00
2023-05-08T09:13:31.307Z,99167.41
2023-05-08T09:18:33.649Z,99156.78
2023-05-08T09:23:59.305Z,99164.31
2023-05-08T09:29:18.848Z,99155.66
2023-05-08T09:34:28.134Z,99158.06
2023-05-08T09:39:30.077Z,99155.41
2023-05-08T09:44:51.855Z,99147.72
2023-05-08T09:49:57.054Z,99150.78
2023-05-08T09:55:03.988Z,99145.22
2023-05-08T10:00:06.414Z,99148.41
2023-05-08T10:05:32.915Z,99142.59
2023-05-08T10:10:37.049Z,99148.19
2023-05-08T10:15:42.429Z,99149.25
2023-05-08T10:20:48.910Z,99140.13
2023-05-08T10:26:02.696Z,99135.19
2023-05-08T10:31:07.420Z,99138.44
2023-05-08T10:36:10.300Z,99131.78
2023-05-08T10:41:13.455Z,99127.81
2023-05-08T10:46:56.644Z,99119.16
2023-05-08T10:52:12.927Z,99112.75
2023-05-08T10:57:15.714Z,99120.00
2023-05-08T11:02:28.938Z,99115.56
2023-05-08T11:07:57.424Z,99107.72
2023-05-08T11:13:00.250Z,99100.75
2023-05-08T11:18:05.088Z,99107.19
2023-05-08T11:23:27.435Z,99104.84
2023-05-08T11:28:58.706Z,99101.94
2023-05-08T11:34:00.585Z,99105.16
2023-05-08T11:39:07.904Z,99092.84
2023-05-08T11:44:20.125Z,99095.09
2023-05-08T11:49:27.404Z,99095.38
2023-05-08T11:54:32.056Z,99091.22
2023-05-08T11:59:37.658Z,99075.19
2023-05-08T12:04:48.199Z,99073.53
2023-05-08T12:09:50.356Z,99080.22
2023-05-08T12:14:52.241Z,99081.75
2023-05-08T12:19:59.090Z,99075.56
2023-05-08T12:25:04.784Z,99076.50
2023-05-08T12:30:09.343Z,99061.03
2023-05-08T12:35:12.858Z,99064.06
2023-05-08T12:40:46.733Z,99062.50
2023-05-08T12:45:54.108Z,99059.53
2023-05-08T12:51:02.462Z,99052.47
2023-05-08T12:56:05.018Z,99057.25
2023-05-08T13:01:13.719Z,99061.03
2023-05-08T13:06:22.512Z,99053.72
2023-05-08T13:11:33.305Z,99054.53
2023-05-08T13:16:46.136Z,99051.59
2023-05-08T13:21:48.217Z,99049.41
2023-05-08T13:26:50.140Z,99040.41
2023-05-08T13:31:52.235Z,99038.03
2023-05-08T13:36:54.260Z,99022.91
2023-05-08T13:41:56.095Z,99025.72
2023-05-08T13:46:58.043Z,99023.28
2023-05-08T13:51:59.884Z,99020.66
2023-05-08T13:57:02.807Z,99013.84
2023-05-08T14:02:04.679Z,99007.41
2023-05-08T14:07:06.989Z,99008.84
2023-05-08T14:12:09.296Z,99010.88
2023-05-08T14:17:11.440Z,99014.94
2023-05-08T14:22:13.249Z,99008.50
2023-05-08T14:27:15.217Z,98998.03
2023-05-08T14:32:17.013Z,98993.63
2023-05-08T14:37:18.850Z,98992.00
2023-05-08T14:42:23.635Z,98980.94
2023-05-08T14:47:26.117Z,98982.97
2023-05-08T14:52:27.987Z,98986.03
2023-05-08T14:57:29.969Z,98980.19
2023-05-08T15:02:31.991Z,98986.06
2023-05-08T15:07:34.869Z,98977.59
2023-05-08T15:12:36.853Z,98977.59
2023-05-08T15:17:41.538Z,98975.13
2023-05-08T15:22:43.742Z,98972.03
2023-05-08T15:27:46.085Z,98970.53
2023-05-08T15:32:48.761Z,98976.56
2023-05-08T15:37:50.961Z,98978.13
2023-05-08T15:42:52.732Z,98973.66
2023-05-08T15:47:54.581Z,98977.66
2023-05-08T15:52:56.362Z,98978.22
2023-05-08T15:57:58.107Z,98974.09
2023-05-08T16:03:00.269Z,98975.84
2023-05-08T16:08:02.381Z,98962.69
2023-05-08T16:13:04.346Z,98961.44
2023-05-08T16:18:06.738Z,98957.31
2023-05-08T16:23:08.995Z,98948.78
2023-05-08T16:28:10.763Z,98955.34
2023-05-08T16:33:12.735Z,98959.28
2023-05-08T16:38:14.592Z,98956.16
2023-05-08T16:43:16.439Z,98958.69
2023-05-08T16:48:18.236Z,98949.75
2023-05-08T16:53:20.146Z,98961.81
2023-05-08T16:58:22.997Z,98963.72
2023-05-08T17:03:25.151Z,98970.03
2023-05-08T17:08:27.122Z,98970.50
2023-05-08T17:13:29.182Z,98968.81
2023-05-08T17:18:31.337Z,98967.28
2023-05-08T17:23:33.228Z,98977.47
2023-05-08T17:28:35.104Z,98979.19
2023-05-08T17:33:37.896Z,98979.75
2023-05-08T17:38:46.125Z,98982.63
2023-05-08T17:43:48.045Z,98988.94
2023-05-08T17:48:50.146Z,98991.00
2023-05-08T17:53:53.186Z,98998.47
2023-05-08T17:58:55.699Z,99001.34
2023-05-08T18:03:57.596Z,99005.22
2023-05-08T18:08:59.375Z,99019.78
2023-05-08T18:14:01.220Z,99026.72
2023-05-08T18:19:02.976Z,99020.53
2023-05-08T18:24:05.814Z,99028.44
2023-05-08T18:29:07.958Z,99031.94
2023-05-08T18:34:09.827Z,99033.13
2023-05-08T18:39:11.912Z,99036.63
2023-05-08T18:44:15.010Z,99038.78
2023-05-08T18:49:16.919Z,99041.44
2023-05-08T18:54:18.978Z,99043.28
2023-05-08T18:59:21.599Z,99052.94
2023-05-08T19:04:23.474Z,99060.47
2023-05-08T19:09:25.481Z,99063.44
2023-05-08T19:14:27.391Z,99059.53
2023-05-08T19:19:29.691Z,99061.66
2023-05-08T19:24:31.982Z,99058.91
2023-05-08T19:29:35.465Z,99067.03
2023-05-08T19:34:39.783Z,99070.97
2023-05-08T19:39:44.518Z,99060.19
2023-05-08T19:44:46.428Z,99062.81
2023-05-08T19:49:49.350Z,99069.84
2023-05-08T19:54:51.158Z,99069.69
2023-05-08T19:59:53.239Z,99074.13
2023-05-08T20:05:21.273Z,99072.31
2023-05-08T20:10:16.870Z,99070.38
2023-05-08T20:15:18.783Z,99071.50
2023-05-08T20:20:21.841Z,99074.28
2023-05-08T20:25:23.917Z,99080.16
2023-05-08T20:30:25.984Z,99079.66
2023-05-08T20:35:27.977Z,99072.97
2023-05-08T20:40:29.916Z,99068.25
2023-05-08T20:45:31.771Z,99069.72
2023-05-08T20:50:33.627Z,99066.78
2023-05-08T20:55:35.487Z,99064.81
2023-05-08T21:00:37.317Z,99072.31
2023-05-08T21:05:39.146Z,99078.31
2023-05-08T21:10:41.032Z,99067.72
2023-05-08T21:15:42.816Z,99063.47
2023-05-08T21:20:50.471Z,99064.19
2023-05-08T21:25:53.136Z,99067.41
2023-05-08T21:30:54.855Z,99058.44
2023-05-08T21:35:56.642Z,99052.88
2023-05-08T21:41:08.415Z,99050.59
2023-05-08T21:46:10.380Z,99046.66
2023-05-08T21:51:12.346Z,99045.66
2023-05-08T21:56:14.214Z,99054.09
2023-05-08T22:01:16.192Z,99056.84
2023-05-08T22:06:17.988Z,99053.75
2023-05-08T22:11:19.730Z,99058.28
2023-05-08T22:16:21.582Z,99042.97
2023-05-08T22:21:23.421Z,99047.84
2023-05-08T22:26:25.297Z,99038.19
2023-05-08T22:31:27.131Z,99036.22
2023-05-08T22:36:29.289Z,99037.97
2023-05-08T22:41:31.222Z,99033.22
2023-05-08T22:46:34.385Z,99029.28
2023-05-08T22:51:36.727Z,99027.00
2023-05-08T22:56:38.587Z,99033.31
2023-05-08T23:01:40.535Z,99022.56
2023-05-08T23:06:42.408Z,99027.56
2023-05-08T23:11:44.256Z,99018.22
2023-05-08T23:16:46.323Z,99016.38
2023-05-08T23:21:48.242Z,99026.38
2023-05-08T23:26:52.544Z,99018.06
2023-05-08T23:31:54.530Z,99019.19
2023-05-08T23:36:56.363Z,99023.88
2023-05-08T23:41:58.184Z,99017.34
2023-05-08T23:47:00.126Z,99013.56
2023-05-08T23:52:02.196Z,99008.00
2023-05-08T23:57:04.145Z,99004.34
